首页
METAR-TAF:

METAR-TAF

机场 :

萨瓦德尔, 西班牙

纬度: 41-31N, 经度: 002-06E, 海拔: 250米

当前天气观测

该预报发布于24分钟前的18:30 UTC
风速5节,风向,在东转东北东南之间变化
温度 29°C
湿度 66%
气压 1020 hPa
能见度10公里或以上
1500米以下无云,无积雨云

METAR: LELL 221830Z 09005KT 060V130 CAVOK 29/22 Q1020

时间: 20:54 (18:54 UTC)

预报

该预报发布于2小时和23分钟前的16:31 UTC
预报有效从22日的 16点(UTC)到 23日的 15点(UTC)
风速10节,风向东转东南
能见度10公里或以上
少量云层高于3000英尺
成为
从 22日的 18点(UTC)到 22日的 20点(UTC)
风速3节,风向多变
成为
从 23日的 11点(UTC)到 23日的 13点(UTC)
风速12节,风向

TAF: LELL 221631Z 2216/2315 11010KT 9999 FEW030 TX33/2313Z TN20/2305Z BECMG 2218/2220 VRB03KT BECMG 2311/2313 19012KT

超过4000个机场的气象观测和天气预报(METAR&TAF报告)。

可查询的气象台以黄色和红色小点在地图上表示。

将鼠标移到小点上方,可查看气象台名称。

然后点击查看天气观测和预报。

如需切换地图:点击带黑十字的绿色按钮放大地图;点击带横线的绿色按钮缩小地图;或者点击绿色箭头查看邻近地区的地图。


METAR-TAF: